Thunder radar more information blitzortung!


Radar de pluja more information rain snow radar


Visita la nostra xarxa de llocs de meteo:

Template documentation
and downloads

And another site



No particular awareness of the weather is required.    There are no Weather-warnings

Pagina Historial Weather Underground text

Diari Resum Marc 15, 2016 Unitats:  Mètric    Imperial   Tant
« Previous Dia
SegĂźent Dia »
Diari Setmana Mensual Anual Personalitzada
  Maxima: Minima: Media:
Temperatura: 14.2 °C 5.0 °C 8.6 °C
Punt de rosada: 6.3 °C 1.3 °C 3.9 °C
Humitat: 80 % 54 % 73 %
Wind Speed: 16.9 km/h 0.0 km/h 3.6 km/h
RĂ fegues de vent: 16.9 km/h - -
Vent:- - SSW
Pression baro: 1021.9 hPa 1013.8 hPa -
Precipitacions: 2.0 mm    
Historical Graphs
 
 
Dades de taula per Marc 15, 2016
Temps Temperatura Punt de rosada Pression baro Vent Wind Speed RĂ fegues de vent Humitat Rainfall Rate (Hourly)
00:05 5.9 °C 2.2 °C 1020.9 hPa NNW 1.6 km/h 3.2 km/h 77 % 0.0 mm
00:15 5.4 °C 1.7 °C 1020.9 hPa West 1.6 km/h 3.2 km/h 77 % 0.0 mm
00:25 5.5 °C 1.9 °C 1020.9 hPa West 1.6 km/h 3.2 km/h 78 % 0.0 mm
00:35 5.5 °C 1.8 °C 1019.9 hPa North 1.6 km/h 3.2 km/h 77 % 0.0 mm
00:45 5.3 °C 1.8 °C 1020.9 hPa Calm   1.6 km/h 78 % 0.0 mm
01:05 5.0 °C 1.3 °C 1019.9 hPa WSW 1.6 km/h 3.2 km/h 77 % 0.0 mm
01:15 5.1 °C 1.4 °C 1020.9 hPa SW 1.6 km/h 3.2 km/h 77 % 0.0 mm
01:25 5.0 °C 1.5 °C 1020.9 hPa Calm   3.2 km/h 78 % 0.0 mm
01:35 5.1 °C 1.6 °C 1020.9 hPa SSW 3.2 km/h 3.2 km/h 78 % 0.0 mm
01:45 5.3 °C 1.9 °C 1020.9 hPa South 1.6 km/h 1.6 km/h 79 % 0.0 mm
01:55 5.5 °C 2.3 °C 1020.9 hPa NE 1.6 km/h 1.6 km/h 80 % 0.0 mm
02:05 5.8 °C 2.6 °C 1021.9 hPa Calm   1.6 km/h 80 % 0.0 mm
02:15 5.9 °C 2.6 °C 1021.9 hPa Calm     79 % 0.0 mm
02:25 6.1 °C 2.6 °C 1021.9 hPa West 1.6 km/h 3.2 km/h 78 % 0.0 mm
02:35 6.2 °C 2.8 °C 1021.9 hPa Calm   1.6 km/h 79 % 0.0 mm
02:45 6.4 °C 3.0 °C 1021.9 hPa Calm   3.2 km/h 79 % 0.0 mm
02:55 6.6 °C 3.2 °C 1021.9 hPa Calm   1.6 km/h 79 % 0.0 mm
03:15 6.8 °C 3.4 °C 1021.9 hPa Calm   3.2 km/h 79 % 0.0 mm
03:25 6.9 °C 3.3 °C 1021.9 hPa SW 3.2 km/h 3.2 km/h 78 % 0.0 mm
03:35 7.1 °C 3.7 °C 1021.9 hPa Calm   3.2 km/h 79 % 0.0 mm
03:45 7.4 °C 3.8 °C 1021.9 hPa Calm   3.2 km/h 78 % 0.0 mm
03:55 7.6 °C 4.0 °C 1021.9 hPa SW 3.2 km/h 4.8 km/h 78 % 0.0 mm
04:05 8.0 °C 4.2 °C 1021.9 hPa Calm   3.2 km/h 77 % 0.0 mm
04:15 8.2 °C 4.2 °C 1021.9 hPa SW 3.2 km/h 3.2 km/h 76 % 0.0 mm
04:25 8.5 °C 4.5 °C 1021.9 hPa SW 1.6 km/h 3.2 km/h 76 % 0.0 mm
10:25 8.6 °C 4.6 °C 1021.9 hPa NE 5.6 km/h 5.6 km/h 76 % 0.0 mm
10:30 8.7 °C 4.7 °C 1021.9 hPa SW 3.7 km/h 3.7 km/h 76 % 0.0 mm
10:35 8.8 °C 4.6 °C 1021.9 hPa SW 1.9 km/h 1.9 km/h 75 % 0.0 mm
10:40 9.0 °C 4.8 °C 1021.9 hPa SSW 3.7 km/h 3.7 km/h 75 % 0.0 mm
10:45 9.1 °C 4.7 °C 1021.9 hPa ESE 3.7 km/h 3.7 km/h 74 % 0.0 mm
10:50 9.1 °C 4.7 °C 1021.9 hPa ENE 1.9 km/h 1.9 km/h 74 % 0.0 mm
10:55 9.2 °C 4.8 °C 1020.9 hPa Calm     74 % 0.0 mm
11:00 9.3 °C 4.9 °C 1020.9 hPa NNE 3.7 km/h 3.7 km/h 74 % 0.0 mm
11:05 9.5 °C 5.1 °C 1020.9 hPa WNW 3.2 km/h   74 % 0.0 mm
11:10 9.6 °C 5.2 °C 1020.9 hPa SW 3.7 km/h 3.7 km/h 74 % 0.0 mm
11:15 9.5 °C 4.9 °C 1020.9 hPa SW 2.6 km/h 2.6 km/h 73 % 0.0 mm
11:20 9.7 °C 5.1 °C 1020.9 hPa SW 3.7 km/h 3.7 km/h 73 % 0.0 mm
11:25 9.9 °C 5.3 °C 1019.9 hPa SW 2.6 km/h 2.6 km/h 73 % 0.0 mm
11:30 10.0 °C 5.4 °C 1019.9 hPa ESE 2.3 km/h 2.3 km/h 73 % 0.0 mm
11:35 10.0 °C 5.2 °C 1019.9 hPa East 3.7 km/h 3.7 km/h 72 % 0.0 mm
11:40 10.1 °C 5.3 °C 1020.9 hPa ENE 1.9 km/h 1.9 km/h 72 % 0.0 mm
11:45 10.2 °C 5.2 °C 1020.9 hPa East 4.7 km/h 4.7 km/h 71 % 0.0 mm
11:50 10.2 °C 5.2 °C 1020.9 hPa ENE 3.7 km/h 3.7 km/h 71 % 0.0 mm
11:55 10.4 °C 5.4 °C 1020.9 hPa ENE 1.9 km/h   71 % 0.0 mm
12:00 10.6 °C 5.6 °C 1020.9 hPa ENE 3.7 km/h 3.7 km/h 71 % 0.0 mm
12:05 10.6 °C 5.3 °C 1020.9 hPa NE 3.7 km/h 3.7 km/h 70 % 0.0 mm
12:10 10.6 °C 5.3 °C 1019.9 hPa ENE 3.7 km/h 3.7 km/h 70 % 0.0 mm
12:15 10.6 °C 5.3 °C 1019.9 hPa East 3.7 km/h 3.7 km/h 70 % 0.0 mm
12:20 10.8 °C 5.3 °C 1019.9 hPa NNE 3.9 km/h 3.9 km/h 69 % 0.0 mm
12:25 11.1 °C 5.6 °C 1019.9 hPa NE 3.7 km/h 3.7 km/h 69 % 0.0 mm
12:30 11.3 °C 5.8 °C 1019.9 hPa WNW 3.7 km/h 3.7 km/h 69 % 0.0 mm
12:35 11.5 °C 5.6 °C 1019.9 hPa ENE 3.7 km/h 3.7 km/h 67 % 0.0 mm
12:40 11.5 °C 5.4 °C 1019.9 hPa ENE 3.7 km/h 3.7 km/h 66 % 0.0 mm
12:50 11.5 °C 5.2 °C 1019.9 hPa SW 2.6 km/h   65 % 0.0 mm
12:55 11.6 °C 5.4 °C 1019.9 hPa SW 7.4 km/h 7.4 km/h 66 % 0.0 mm
13:00 11.8 °C 5.7 °C 1019.9 hPa SW 4.7 km/h   66 % 0.0 mm
13:05 12.0 °C 5.6 °C 1019.9 hPa WSW 5.6 km/h 5.6 km/h 65 % 0.0 mm
13:10 12.3 °C 5.7 °C 1019.9 hPa SW 7.4 km/h 7.4 km/h 64 % 0.0 mm
13:15 12.3 °C 5.4 °C 1019.9 hPa East 5.6 km/h 5.6 km/h 63 % 0.0 mm
13:20 12.8 °C 5.9 °C 1019.9 hPa SW 4.2 km/h 4.2 km/h 63 % 0.0 mm
13:25 12.8 °C 5.7 °C 1019.9 hPa WNW 3.7 km/h 3.7 km/h 62 % 0.0 mm
13:30 13.0 °C 5.9 °C 1019.9 hPa WNW 3.7 km/h 3.7 km/h 62 % 0.0 mm
13:35 13.2 °C 5.8 °C 1019.9 hPa SW 5.8 km/h 5.8 km/h 61 % 0.0 mm
13:40 13.3 °C 5.9 °C 1018.8 hPa WSW 5.6 km/h 5.6 km/h 61 % 0.0 mm
13:45 13.5 °C 5.9 °C 1018.8 hPa WSW 7.9 km/h 7.9 km/h 60 % 0.0 mm
13:50 13.7 °C 5.8 °C 1018.8 hPa SSW 5.6 km/h 5.6 km/h 59 % 0.0 mm
13:55 13.7 °C 5.3 °C 1018.8 hPa SW 9.3 km/h 9.3 km/h 57 % 0.0 mm
14:00 14.0 °C 5.6 °C 1018.8 hPa SSW 7.4 km/h 7.4 km/h 57 % 0.0 mm
14:05 14.0 °C 5.3 °C 1018.8 hPa SSW 7.4 km/h 7.4 km/h 56 % 0.0 mm
14:10 14.0 °C 5.3 °C 1018.8 hPa SSW 3.9 km/h 3.9 km/h 56 % 0.0 mm
14:15 13.9 °C 5.3 °C 1018.8 hPa SW 3.7 km/h 3.7 km/h 56 % 0.0 mm
14:20 13.8 °C 5.2 °C 1018.8 hPa SSW 5.6 km/h 5.6 km/h 56 % 0.0 mm
14:25 13.9 °C 5.3 °C 1017.8 hPa SW 3.9 km/h 3.9 km/h 56 % 0.0 mm
14:30 13.9 °C 5.0 °C 1017.8 hPa WSW 5.6 km/h 5.6 km/h 55 % 0.0 mm
14:35 14.1 °C 5.2 °C 1017.8 hPa West 3.7 km/h 3.9 km/h 55 % 0.0 mm
14:40 14.0 °C 5.1 °C 1018.8 hPa WSW 7.4 km/h 7.4 km/h 55 % 0.0 mm
14:45 13.9 °C 4.7 °C 1018.8 hPa West 3.7 km/h 3.7 km/h 54 % 0.0 mm
14:50 14.0 °C 4.8 °C 1018.8 hPa NW 5.6 km/h 5.6 km/h 54 % 0.0 mm
14:55 14.2 °C 5.0 °C 1018.8 hPa East 3.9 km/h   54 % 0.0 mm
15:00 14.1 °C 4.9 °C 1018.8 hPa NNE 16.7 km/h 16.7 km/h 54 % 0.0 mm
15:05 12.9 °C 4.3 °C 1018.8 hPa NNE 15.6 km/h 15.6 km/h 56 % 0.0 mm
15:10 12.0 °C 3.7 °C 1018.8 hPa SE 16.9 km/h 16.9 km/h 57 % 0.0 mm
15:20 11.5 °C 4.0 °C 1018.8 hPa ENE 9.3 km/h 9.3 km/h 60 % 0.0 mm
15:25 11.3 °C 4.3 °C 1018.8 hPa East 9.3 km/h 9.3 km/h 62 % 0.0 mm
15:30 10.8 °C 4.1 °C 1018.8 hPa ENE 9.3 km/h 9.3 km/h 63 % 0.0 mm
15:35 10.6 °C 4.1 °C 1018.8 hPa East 9.3 km/h 9.3 km/h 64 % 0.0 mm
15:40 10.4 °C 3.9 °C 1018.8 hPa ENE 5.6 km/h 5.6 km/h 64 % 0.0 mm
15:45 10.2 °C 3.9 °C 1018.8 hPa NE 9.3 km/h 9.3 km/h 65 % 0.0 mm
15:50 10.1 °C 4.1 °C 1018.8 hPa NNE 5.6 km/h 5.6 km/h 66 % 0.0 mm
15:55 10.0 °C 3.9 °C 1018.8 hPa NW 3.7 km/h 3.7 km/h 66 % 0.0 mm
16:00 9.9 °C 4.1 °C 1018.8 hPa East 5.6 km/h 5.6 km/h 67 % 0.0 mm
16:05 9.7 °C 4.3 °C 1018.8 hPa East 3.9 km/h 3.9 km/h 69 % 0.0 mm
16:10 9.6 °C 4.0 °C 1018.8 hPa SW 6.1 km/h 6.1 km/h 68 % 0.0 mm
16:15 9.4 °C 4.6 °C 1018.8 hPa WSW 2.3 km/h 2.3 km/h 72 % 0.0 mm
16:20 9.2 °C 4.6 °C 1018.8 hPa WNW 1.9 km/h   73 % 0.0 mm
16:25 9.2 °C 4.6 °C 1017.8 hPa West 1.9 km/h 1.9 km/h 73 % 0.0 mm
16:30 9.1 °C 4.5 °C 1017.8 hPa WSW 3.7 km/h 3.7 km/h 73 % 0.0 mm
16:35 9.2 °C 4.8 °C 1017.8 hPa SW 7.6 km/h 7.6 km/h 74 % 0.0 mm
16:40 9.2 °C 5.0 °C 1018.8 hPa WSW 3.2 km/h 3.2 km/h 75 % 0.0 mm
16:45 9.2 °C 5.2 °C 1018.8 hPa SW 5.0 km/h 5.0 km/h 76 % 0.0 mm
16:50 9.1 °C 5.3 °C 1018.8 hPa WSW 3.7 km/h 4.2 km/h 77 % 0.0 mm
16:55 9.1 °C 5.4 °C 1017.8 hPa SW 3.7 km/h 3.9 km/h 78 % 0.0 mm
17:00 9.1 °C 5.4 °C 1017.8 hPa SW 3.9 km/h 3.9 km/h 78 % 0.0 mm
17:05 9.1 °C 5.4 °C 1017.8 hPa WSW 3.9 km/h 3.9 km/h 78 % 0.0 mm
17:10 9.1 °C 5.4 °C 1017.8 hPa SW 3.7 km/h 3.7 km/h 78 % 0.0 mm
17:15 9.1 °C 5.4 °C 1017.8 hPa SW 5.6 km/h 5.6 km/h 78 % 0.0 mm
17:20 9.3 °C 5.8 °C 1017.8 hPa WSW 5.6 km/h 5.6 km/h 79 % 2.0 mm
17:25 9.4 °C 6.1 °C 1017.8 hPa SW 10.0 km/h 10.0 km/h 80 % 2.0 mm
17:30 9.6 °C 6.3 °C 1017.8 hPa SW 7.4 km/h 7.4 km/h 80 % 2.0 mm
17:35 9.6 °C 6.3 °C 1017.8 hPa WNW 7.4 km/h 7.4 km/h 80 % 2.0 mm
17:40 9.7 °C 6.2 °C 1017.8 hPa WSW 7.4 km/h 7.4 km/h 79 % 2.0 mm
17:45 9.7 °C 6.2 °C 1017.8 hPa WSW 3.7 km/h 3.9 km/h 79 % 2.0 mm
17:50 9.8 °C 6.3 °C 1017.8 hPa SW 7.4 km/h 7.4 km/h 79 % 2.0 mm
17:55 9.8 °C 6.3 °C 1017.8 hPa SW 5.6 km/h 5.6 km/h 79 % 2.0 mm
18:00 9.8 °C 6.2 °C 1017.8 hPa SSW 4.7 km/h 4.7 km/h 78 % 2.0 mm
18:05 9.7 °C 6.1 °C 1017.8 hPa SW 5.8 km/h 5.8 km/h 78 % 2.0 mm
18:10 9.5 °C 5.8 °C 1017.8 hPa SW 7.4 km/h 7.4 km/h 78 % 2.0 mm
18:15 9.3 °C 5.4 °C 1017.8 hPa SW 7.4 km/h 7.4 km/h 77 % 2.0 mm
18:20 9.2 °C 5.6 °C 1017.8 hPa SW 5.6 km/h 5.6 km/h 78 % 0.0 mm
18:25 9.1 °C 5.4 °C 1017.8 hPa SW 6.9 km/h 6.9 km/h 78 % 0.0 mm
18:30 9.0 °C 5.4 °C 1017.8 hPa WSW 7.4 km/h 7.4 km/h 78 % 0.0 mm
18:35 8.8 °C 5.2 °C 1017.8 hPa WSW 7.4 km/h 7.4 km/h 78 % 0.0 mm
18:40 8.7 °C 5.1 °C 1017.8 hPa SW 5.6 km/h 5.6 km/h 78 % 0.0 mm
18:45 8.6 °C 5.0 °C 1017.8 hPa SW 9.3 km/h 9.3 km/h 78 % 0.0 mm
18:50 8.5 °C 4.9 °C 1017.8 hPa SW 5.3 km/h 5.3 km/h 78 % 0.0 mm
18:52 8.4 °C 4.8 °C 1017.8 hPa SW 5.6 km/h 5.6 km/h 78 % 0.0 mm
18:55 7.0 °C 2.9 °C 1015.8 hPa WSW 1.6 km/h 1.6 km/h 75 % 0.0 mm
18:57 8.2 °C 4.6 °C 1016.8 hPa WSW 5.0 km/h 5.0 km/h 78 % 0.0 mm
19:02 8.1 °C 4.5 °C 1016.8 hPa West 5.6 km/h 5.6 km/h 78 % 0.0 mm
19:05 6.9 °C 2.8 °C 1015.8 hPa Calm   1.6 km/h 75 % 0.0 mm
19:07 8.2 °C 4.4 °C 1016.8 hPa West 3.7 km/h 3.7 km/h 77 % 0.0 mm
19:12 8.3 °C 4.3 °C 1017.8 hPa West 3.7 km/h 3.9 km/h 76 % 0.0 mm
19:15 6.8 °C 2.7 °C 1015.8 hPa NNW 1.6 km/h   75 % 0.0 mm
19:17 8.3 °C 4.1 °C 1017.8 hPa WSW 5.6 km/h 5.6 km/h 75 % 0.0 mm
19:22 8.2 °C 4.1 °C 1017.8 hPa WSW 3.7 km/h 3.7 km/h 75 % 0.0 mm
19:25 6.6 °C 2.5 °C 1015.8 hPa Calm   3.2 km/h 75 % 0.0 mm
19:27 8.2 °C 4.1 °C 1017.8 hPa WSW 5.6 km/h 5.6 km/h 75 % 0.0 mm
19:32 8.0 °C 3.8 °C 1017.8 hPa WSW 3.7 km/h 3.7 km/h 75 % 0.0 mm
19:35 6.7 °C 2.6 °C 1015.8 hPa Calm   1.6 km/h 75 % 0.0 mm
19:37 8.0 °C 3.7 °C 1017.8 hPa WSW 1.9 km/h   74 % 0.0 mm
19:42 7.9 °C 3.6 °C 1017.8 hPa WSW 3.7 km/h 3.7 km/h 74 % 0.0 mm
19:45 6.4 °C 2.3 °C 1015.8 hPa Calm   1.6 km/h 75 % 0.0 mm
19:47 7.8 °C 3.4 °C 1017.8 hPa SW 2.6 km/h   74 % 0.0 mm
19:52 7.7 °C 3.3 °C 1017.8 hPa Calm     74 % 0.0 mm
19:55 6.3 °C 2.2 °C 1015.8 hPa East 1.6 km/h 4.8 km/h 75 % 0.0 mm
19:57 7.7 °C 3.3 °C 1017.8 hPa SW 2.3 km/h 2.3 km/h 74 % 0.0 mm
20:02 7.8 °C 3.4 °C 1017.8 hPa WSW 3.2 km/h   74 % 0.0 mm
20:05 6.3 °C 2.2 °C 1015.8 hPa West 1.6 km/h 1.6 km/h 75 % 0.0 mm
20:07 7.8 °C 3.4 °C 1017.8 hPa WSW 3.7 km/h 3.7 km/h 74 % 0.0 mm
20:12 7.8 °C 3.4 °C 1017.8 hPa West 3.7 km/h 3.7 km/h 74 % 0.0 mm
20:15 6.3 °C 2.2 °C 1015.8 hPa Calm   1.6 km/h 75 % 0.0 mm
20:17 7.8 °C 3.4 °C 1017.8 hPa NNE 7.4 km/h 7.4 km/h 74 % 0.0 mm
20:22 7.9 °C 3.6 °C 1017.8 hPa West 5.6 km/h 5.6 km/h 74 % 0.0 mm
20:25 6.2 °C 2.1 °C 1015.8 hPa NW 1.6 km/h 1.6 km/h 75 % 0.0 mm
20:27 8.0 °C 3.7 °C 1017.8 hPa ENE 5.6 km/h 5.6 km/h 74 % 0.0 mm
20:32 8.0 °C 3.7 °C 1017.8 hPa NNE 1.9 km/h 1.9 km/h 74 % 0.0 mm
20:35 6.2 °C 2.3 °C 1014.8 hPa North 1.6 km/h 1.6 km/h 76 % 0.0 mm
20:37 7.9 °C 3.6 °C 1017.8 hPa SW 1.9 km/h 1.9 km/h 74 % 0.0 mm
20:45 6.2 °C 2.3 °C 1014.8 hPa NNE 1.6 km/h 3.2 km/h 76 % 0.0 mm
20:47 7.8 °C 3.4 °C 1017.8 hPa Calm     74 % 0.0 mm
20:52 7.7 °C 3.3 °C 1017.8 hPa Calm     74 % 0.0 mm
20:55 6.2 °C 2.3 °C 1014.8 hPa NNE 1.6 km/h 3.2 km/h 76 % 0.0 mm
20:57 7.7 °C 3.3 °C 1017.8 hPa Calm     74 % 0.0 mm
21:02 7.6 °C 3.3 °C 1017.8 hPa West 1.9 km/h   74 % 0.0 mm
21:05 6.3 °C 2.4 °C 1015.8 hPa NE 1.6 km/h 3.2 km/h 76 % 0.0 mm
21:07 7.5 °C 3.2 °C 1017.8 hPa WSW 3.7 km/h 3.7 km/h 74 % 0.0 mm
21:12 7.5 °C 3.2 °C 1017.8 hPa Calm     74 % 0.0 mm
21:15 6.2 °C 2.1 °C 1014.8 hPa Calm   3.2 km/h 75 % 0.0 mm
21:17 7.5 °C 3.2 °C 1017.8 hPa SW 1.9 km/h 1.9 km/h 74 % 0.0 mm
21:22 7.4 °C 3.1 °C 1017.8 hPa SW 1.9 km/h   74 % 0.0 mm
21:25 6.0 °C 1.9 °C 1014.8 hPa Calm   1.6 km/h 75 % 0.0 mm
21:27 7.3 °C 3.2 °C 1017.8 hPa Calm     75 % 0.0 mm
21:32 7.3 °C 3.2 °C 1017.8 hPa WSW 1.9 km/h   75 % 0.0 mm
21:35 5.7 °C 1.6 °C 1014.8 hPa WSW 1.6 km/h 3.2 km/h 75 % 0.0 mm
21:37 7.2 °C 3.1 °C 1017.8 hPa Calm     75 % 0.0 mm
21:42 7.2 °C 3.1 °C 1017.8 hPa WSW 1.9 km/h   75 % 0.0 mm
21:45 5.5 °C 1.4 °C 1014.8 hPa SW 1.6 km/h 3.2 km/h 75 % 0.0 mm
21:47 7.1 °C 2.9 °C 1017.8 hPa SW 1.9 km/h   75 % 0.0 mm
21:52 7.2 °C 3.1 °C 1017.8 hPa WSW 2.3 km/h 2.3 km/h 75 % 0.0 mm
21:55 5.7 °C 1.6 °C 1014.8 hPa WSW 1.6 km/h 1.6 km/h 75 % 0.0 mm
21:57 7.2 °C 3.1 °C 1017.8 hPa Calm     75 % 0.0 mm
22:02 7.2 °C 3.1 °C 1017.8 hPa Calm     75 % 0.0 mm
22:05 5.8 °C 1.9 °C 1014.8 hPa WNW 1.6 km/h 3.2 km/h 76 % 0.0 mm
22:07 7.1 °C 2.9 °C 1017.8 hPa WSW 3.7 km/h 3.7 km/h 75 % 0.0 mm
22:12 7.0 °C 2.9 °C 1017.8 hPa SSW 3.9 km/h 3.9 km/h 75 % 0.0 mm
22:15 5.7 °C 1.8 °C 1014.8 hPa NNE 3.2 km/h 3.2 km/h 76 % 0.0 mm
22:17 6.8 °C 2.7 °C 1017.8 hPa WSW 3.9 km/h 3.9 km/h 75 % 0.0 mm
22:22 6.7 °C 2.6 °C 1017.8 hPa WSW 1.9 km/h 2.3 km/h 75 % 0.0 mm
22:25 5.7 °C 1.8 °C 1014.8 hPa Calm   3.2 km/h 76 % 0.0 mm
22:27 6.8 °C 2.7 °C 1017.8 hPa SW 5.6 km/h 5.6 km/h 75 % 0.0 mm
22:32 6.9 °C 2.8 °C 1017.8 hPa SW 3.7 km/h 3.7 km/h 75 % 0.0 mm
22:35 5.7 °C 1.8 °C 1014.8 hPa NE 3.2 km/h 3.2 km/h 76 % 0.0 mm
22:37 6.9 °C 2.8 °C 1017.8 hPa SSW 3.7 km/h 3.7 km/h 75 % 0.0 mm
22:42 7.0 °C 3.1 °C 1017.8 hPa SW 1.9 km/h   76 % 0.0 mm
22:47 6.9 °C 2.9 °C 1017.8 hPa Calm     76 % 0.0 mm
22:52 7.0 °C 3.1 °C 1017.8 hPa WSW 3.9 km/h 3.9 km/h 76 % 0.0 mm
22:55 5.6 °C 1.7 °C 1013.8 hPa Calm     76 % 0.0 mm
22:57 7.0 °C 3.1 °C 1017.8 hPa SW 3.9 km/h 3.9 km/h 76 % 0.0 mm
23:02 7.0 °C 3.1 °C 1017.8 hPa WSW 4.2 km/h 4.2 km/h 76 % 0.0 mm
23:05 5.5 °C 1.6 °C 1013.8 hPa Calm   1.6 km/h 76 % 0.0 mm
23:07 7.0 °C 3.1 °C 1017.8 hPa WSW 3.7 km/h 3.7 km/h 76 % 0.0 mm
23:12 7.0 °C 3.1 °C 1016.8 hPa WSW 2.6 km/h 2.6 km/h 76 % 0.0 mm
23:15 5.4 °C 1.5 °C 1013.8 hPa Calm   1.6 km/h 76 % 0.0 mm
23:17 6.9 °C 2.9 °C 1016.8 hPa SW 3.9 km/h 3.9 km/h 76 % 0.0 mm
23:22 6.8 °C 2.9 °C 1016.8 hPa WSW 3.7 km/h 3.7 km/h 76 % 0.0 mm
23:25 5.5 °C 1.6 °C 1013.8 hPa NNW 1.6 km/h 3.2 km/h 76 % 0.0 mm
23:27 6.8 °C 2.9 °C 1016.8 hPa WSW 1.9 km/h 1.9 km/h 76 % 0.0 mm
23:32 6.7 °C 2.8 °C 1016.8 hPa Calm     76 % 0.0 mm
23:35 5.6 °C 1.7 °C 1013.8 hPa NNE 1.6 km/h 3.2 km/h 76 % 0.0 mm
23:37 6.7 °C 2.8 °C 1016.8 hPa SW 1.9 km/h 1.9 km/h 76 % 0.0 mm
23:42 6.8 °C 2.9 °C 1016.8 hPa WSW 1.9 km/h 1.9 km/h 76 % 0.0 mm
23:45 5.6 °C 1.7 °C 1013.8 hPa NNE 4.8 km/h 4.8 km/h 76 % 0.0 mm
23:47 6.7 °C 2.8 °C 1016.8 hPa Calm     76 % 0.0 mm
23:55 5.7 °C 1.8 °C 1013.8 hPa NNE 1.6 km/h 4.8 km/h 76 % 0.0 mm
Meteo Sesrovires
Elogis d' Weather Underground - 3.75 mb

Guio original per  Jim McMurry - jmcmurry@mwt.net Adaptat per a la plantilla per  Wim van der Kuil - Leuven-Template.eu

Trobareu la nostra informacio del temps tambe a:

Weather Underground

AWEKAS